Time;durP1;ratioP1;P1;durP2;ratioP2;P2;SDS_P1;SDS_P2;PMS_P1;PMS_P2;Temp;Humidity;BMP_temperature;BMP_pressure;BME280_temperature;BME280_humidity;BME280_pressure;Samples;Min_cycle;Max_cycle;Signal;HPM_P1;HPM_P2
2022/10/22 00:01:07;;;;;;;0.93;0.90;;;;;;;14.04;57.34;99302.94;4349545;33;34434;-72
2022/10/22 00:03:36;;;;;;;0.77;0.77;;;;;;;13.52;58.38;99307.72;4349585;33;34246;-71
2022/10/22 00:06:04;;;;;;;1.02;0.93;;;;;;;12.85;60.03;99303.03;4349561;33;34781;-71
2022/10/22 00:08:32;;;;;;;1.23;1.23;;;;;;;12.52;62.86;99301.94;4349450;33;35896;-71
2022/10/22 00:11:13;;;;;;;0.62;0.62;;;;;;;12.42;63.37;99300.41;4349539;33;35152;-71
2022/10/22 00:13:42;;;;;;;0.43;0.43;;;;;;;12.74;62.50;99306.75;4349182;33;33373;-71
2022/10/22 00:16:11;;;;;;;0.80;0.77;;;;;;;12.77;61.80;99304.06;4335482;33;33805;-72
2022/10/22 00:18:40;;;;;;;1.23;1.12;;;;;;;13.61;59.76;99306.63;4335392;33;35130;-71
2022/10/22 00:21:08;;;;;;;1.30;1.20;;;;;;;13.12;60.84;99305.09;4348566;33;34550;-71
2022/10/22 00:23:40;;;;;;;1.60;1.50;;;;;;;12.78;60.66;99300.59;4335446;33;34388;-71
2022/10/22 00:26:09;;;;;;;1.33;1.23;;;;;;;12.94;60.88;99294.13;4335479;33;33973;-71
2022/10/22 00:28:37;;;;;;;1.23;1.12;;;;;;;13.39;59.92;99296.66;4348522;33;36012;-71
2022/10/22 00:31:05;;;;;;;4.03;0.77;;;;;;;12.92;60.60;99295.03;4335354;33;34347;-71
2022/10/22 00:33:33;;;;;;;1.15;1.05;;;;;;;13.66;58.85;99307.41;4348471;33;33421;-71
2022/10/22 00:36:01;;;;;;;1.40;0.77;;;;;;;13.60;57.94;99297.06;4348566;33;34447;-71
2022/10/22 00:38:29;;;;;;;0.70;0.70;;;;;;;12.64;60.96;99291.25;4335212;33;35014;-71
2022/10/22 00:40:57;;;;;;;0.77;0.77;;;;;;;13.33;59.91;99288.97;4348165;33;35075;-71
2022/10/22 00:43:26;;;;;;;1.98;1.87;;;;;;;13.26;60.28;99282.13;4348559;33;34229;-71
2022/10/22 00:45:54;;;;;;;1.10;1.05;;;;;;;13.05;60.90;99273.84;4348455;33;34823;-71
2022/10/22 00:48:24;;;;;;;0.77;0.77;;;;;;;12.97;60.41;99277.53;4348518;33;35218;-71
2022/10/22 00:51:02;;;;;;;0.77;0.77;;;;;;;13.01;61.39;99280.03;4335196;33;34570;-71
2022/10/22 00:53:35;;;;;;;1.17;1.10;;;;;;;13.73;58.04;99280.19;4348407;33;33457;-71
2022/10/22 00:56:04;;;;;;;1.15;1.05;;;;;;;12.75;61.15;99279.75;4348356;33;34679;-71
2022/10/22 00:58:34;;;;;;;1.67;1.50;;;;;;;12.60;63.11;99281.78;4348319;33;35819;-71
2022/10/22 01:01:04;;;;;;;12.23;1.77;;;;;;;12.38;63.97;99281.31;4335001;33;35048;-71
2022/10/22 01:03:32;;;;;;;0.70;0.70;;;;;;;12.80;62.39;99276.13;4335196;33;32705;-71
2022/10/22 01:06:03;;;;;;;0.50;0.50;;;;;;;12.97;61.76;99281.00;4348296;33;34761;-71
2022/10/22 01:08:42;;;;;;;1.08;1.00;;;;;;;12.52;63.11;99287.13;4335040;33;35083;-71
2022/10/22 01:11:25;;;;;;;1.62;1.52;;;;;;;13.17;60.86;99287.56;4335043;33;34510;-71
2022/10/22 01:14:19;;;;;;;2.08;1.10;;;;;;;12.39;63.28;99284.78;4342893;33;182022;-71
2022/10/22 01:16:54;;;;;;;1.00;1.00;;;;;;;12.96;61.57;99276.66;4335920;33;34036;-71
2022/10/22 01:19:51;;;;;;;3.33;1.95;;;;;;;12.41;63.35;99286.50;4335829;33;35124;-71
2022/10/22 01:22:42;;;;;;;1.00;1.00;;;;;;;12.21;64.26;99281.66;4348985;33;34446;-71
2022/10/22 01:25:37;;;;;;;0.50;0.50;;;;;;;12.96;61.44;99284.50;4349146;33;33529;-71
2022/10/22 01:28:38;;;;;;;2.58;1.70;;;;;;;13.12;59.64;99279.81;4335904;33;33818;-71
2022/10/22 01:31:07;;;;;;;0.40;0.40;;;;;;;13.17;59.72;99282.34;4335707;33;34926;-71
2022/10/22 01:33:35;;;;;;;2.87;2.05;;;;;;;12.55;61.69;99283.63;4335640;33;34358;-71
2022/10/22 01:36:04;;;;;;;1.15;0.98;;;;;;;13.22;59.67;99285.72;4349078;33;33391;-71
2022/10/22 01:38:32;;;;;;;0.50;0.47;;;;;;;13.21;59.40;99289.19;4335878;33;34846;-71
2022/10/22 01:41:00;;;;;;;0.55;0.55;;;;;;;12.64;60.68;99291.25;4335473;33;35938;-71
2022/10/22 01:43:28;;;;;;;0.62;0.62;;;;;;;12.95;60.45;99282.78;4335688;33;35235;-71
2022/10/22 01:45:59;;;;;;;0.47;0.47;;;;;;;12.96;59.98;99279.28;4348855;33;33439;-71
2022/10/22 01:48:39;;;;;;;0.98;0.88;;;;;;;13.07;59.32;99281.66;4348950;33;33901;-71
2022/10/22 01:51:23;;;;;;;0.82;0.82;;;;;;;12.94;59.97;99278.47;4349130;33;34992;-71
2022/10/22 01:54:15;;;;;;;0.85;0.85;;;;;;;12.69;60.51;99265.91;4347992;33;35364;-71
2022/10/22 01:57:08;;;;;;;0.50;0.50;;;;;;;11.08;65.12;99276.47;4348869;33;34287;-71
2022/10/22 01:59:58;;;;;;;0.68;0.68;;;;;;;11.24;64.90;99272.78;4335596;33;33789;-71
2022/10/22 02:02:29;;;;;;;6.47;2.70;;;;;;;11.83;64.29;99284.91;4349055;33;35121;-71
2022/10/22 02:05:02;;;;;;;0.75;0.75;;;;;;;10.97;67.23;99269.66;4348712;33;34579;-71
2022/10/22 02:07:36;;;;;;;0.35;0.35;;;;;;;12.02;63.97;99265.47;4335819;33;34385;-71
2022/10/22 02:10:06;;;;;;;0.70;0.70;;;;;;;12.01;63.87;99260.25;4348747;33;34673;-71
2022/10/22 02:12:34;;;;;;;1.33;1.23;;;;;;;11.56;64.60;99259.22;4335612;33;35026;-71
2022/10/22 02:15:03;;;;;;;0.93;0.93;;;;;;;11.47;64.81;99253.28;4348481;33;35385;-71
2022/10/22 02:17:32;;;;;;;0.82;0.82;;;;;;;11.31;65.74;99257.88;4323174;33;33699;-71
2022/10/22 02:20:06;;;;;;;0.77;0.77;;;;;;;11.27;65.27;99264.88;4335475;33;34687;-71
2022/10/22 02:22:35;;;;;;;1.05;1.05;;;;;;;11.73;64.93;99268.53;4335470;33;35917;-71
2022/10/22 02:25:05;;;;;;;0.45;0.45;;;;;;;11.51;65.18;99263.66;4348626;33;34425;-71
2022/10/22 02:27:45;;;;;;;1.27;1.17;;;;;;;12.20;63.35;99255.56;4335652;33;33470;-71
2022/10/22 02:30:16;;;;;;;0.40;0.40;;;;;;;11.50;64.78;99256.72;4335384;33;34788;-71
2022/10/22 02:32:55;;;;;;;0.62;0.62;;;;;;;11.22;66.71;99264.09;4335430;33;34856;-71
2022/10/22 02:35:25;;;;;;;1.08;1.08;;;;;;;12.51;62.70;99255.81;4335105;33;34519;-71
2022/10/22 02:37:55;;;;;;;1.95;1.67;;;;;;;12.58;61.91;99260.03;4335430;33;34176;-71
2022/10/22 02:40:24;;;;;;;1.77;1.12;;;;;;;12.44;61.57;99268.16;4348558;33;34593;-71
2022/10/22 02:42:52;;;;;;;0.77;0.77;;;;;;;12.04;62.56;99263.69;4335337;33;36029;-71
2022/10/22 02:45:20;;;;;;;0.73;0.73;;;;;;;12.45;61.68;99279.47;4335177;33;34502;-71
2022/10/22 02:47:48;;;;;;;8.27;2.75;;;;;;;11.43;65.00;99278.56;4348379;33;33447;-71
2022/10/22 02:50:16;;;;;;;0.75;0.75;;;;;;;11.97;63.24;99282.09;4348493;33;34719;-71
2022/10/22 02:52:44;;;;;;;1.02;1.02;;;;;;;11.66;63.40;99290.38;4335140;33;35018;-71
2022/10/22 02:55:12;;;;;;;1.05;1.05;;;;;;;12.22;61.60;99280.75;4348204;33;34475;-71
2022/10/22 02:57:40;;;;;;;0.50;0.50;;;;;;;11.91;62.74;99280.41;4348274;33;34514;-71
2022/10/22 03:00:10;;;;;;;0.60;0.60;;;;;;;11.71;63.53;99272.91;4348432;33;33904;-71
2022/10/22 03:02:38;;;;;;;1.17;0.82;;;;;;;10.69;66.64;99279.56;4348216;33;35911;-71
2022/10/22 03:05:06;;;;;;;0.65;0.65;;;;;;;10.53;66.91;99272.81;4348026;33;34364;-71
2022/10/22 03:07:34;;;;;;;1.12;1.08;;;;;;;10.70;66.42;99273.47;4334831;33;33545;-71
2022/10/22 03:10:03;;;;;;;1.48;0.95;;;;;;;10.92;65.96;99276.66;4348189;33;33908;-71
2022/10/22 03:12:31;;;;;;;0.93;0.93;;;;;;;11.03;65.65;99271.34;4348049;33;35843;-71
2022/10/22 03:14:59;;;;;;;1.80;1.42;;;;;;;10.80;66.14;99266.44;4347833;33;34445;-71
2022/10/22 03:17:27;;;;;;;0.98;0.98;;;;;;;11.14;63.81;99261.59;4348128;33;34159;-71
2022/10/22 03:19:55;;;;;;;1.05;0.82;;;;;;;11.55;62.64;99262.72;4334832;33;34794;-71
2022/10/22 03:22:26;;;;;;;0.70;0.70;;;;;;;11.06;64.18;99254.78;4347924;33;35066;-71
2022/10/22 03:24:59;;;;;;;0.50;0.50;;;;;;;10.44;66.41;99251.22;4334922;33;34562;-71
2022/10/22 03:27:28;;;;;;;0.52;0.52;;;;;;;10.02;68.10;99239.50;4334746;33;33507;-71
2022/10/22 03:29:57;;;;;;;0.73;0.73;;;;;;;10.54;66.79;99233.75;4334748;33;33943;-71
2022/10/22 03:32:24;;;;;;;2.12;1.37;;;;;;;10.58;66.40;99256.25;4322428;33;33022;-71
2022/10/22 03:34:52;;;;;;;2.15;1.98;;;;;;;10.30;67.74;99247.88;4347814;33;34463;-71
2022/10/22 03:37:22;;;;;;;0.95;0.95;;;;;;;11.35;64.10;99250.00;4347828;33;33564;-71
2022/10/22 03:39:50;;;;;;;2.35;2.08;;;;;;;11.78;62.02;99243.22;4334744;33;34625;-71
2022/10/22 03:42:18;;;;;;;1.45;1.35;;;;;;;11.51;62.80;99253.22;4347987;33;36035;-71
2022/10/22 03:44:46;;;;;;;0.90;0.90;;;;;;;11.31;63.09;99247.44;4334496;33;34356;-71
2022/10/22 03:47:14;;;;;;;2.55;2.05;;;;;;;11.19;63.11;99249.38;4347784;33;33670;-71
2022/10/22 03:49:42;;;;;;;0.50;0.50;;;;;;;10.86;64.28;99236.81;4347658;33;33775;-71
2022/10/22 03:52:12;;;;;;;1.35;1.25;;;;;;;9.91;67.18;99220.56;4347524;33;35033;-71
2022/10/22 03:54:41;;;;;;;1.40;1.15;;;;;;;9.29;70.23;99224.53;4334384;33;33584;-71
2022/10/22 03:57:09;;;;;;;0.45;0.45;;;;;;;10.24;67.63;99220.19;4347657;33;33601;-71
2022/10/22 03:59:40;;;;;;;0.70;0.70;;;;;;;9.70;69.57;99232.88;4334335;33;34085;-71
2022/10/22 04:02:09;;;;;;;2.15;2.05;;;;;;;10.74;66.02;99235.25;4334259;33;35216;-71
2022/10/22 04:04:38;;;;;;;2.72;1.10;;;;;;;9.80;69.26;99250.12;4334311;33;34359;-71
2022/10/22 04:07:07;;;;;;;0.88;0.85;;;;;;;10.07;68.03;99248.97;4347481;33;33466;-71
2022/10/22 04:09:35;;;;;;;0.70;0.70;;;;;;;9.46;70.53;99254.75;4347373;33;34679;-71
2022/10/22 04:12:05;;;;;;;2.72;2.53;;;;;;;10.20;67.97;99248.84;4347374;33;35010;-71
2022/10/22 04:14:33;;;;;;;1.60;1.50;;;;;;;9.88;69.05;99247.44;4347089;33;35151;-71
2022/10/22 04:17:01;;;;;;;0.80;0.80;;;;;;;10.67;66.08;99238.81;4348661;33;33604;-71
2022/10/22 04:19:29;;;;;;;1.30;1.02;;;;;;;9.75;69.59;99251.03;4336232;33;34675;-71
2022/10/22 04:21:58;;;;;;;0.95;0.95;;;;;;;10.42;67.78;99242.56;4349495;33;35768;-71
2022/10/22 04:24:26;;;;;;;0.50;0.50;;;;;;;10.78;65.70;99252.53;4349333;33;34420;-71
2022/10/22 04:26:55;;;;;;;0.62;0.62;;;;;;;10.74;66.36;99251.72;4336198;33;34363;-71
2022/10/22 04:29:23;;;;;;;0.90;0.90;;;;;;;10.99;64.87;99251.38;4349534;33;34031;-71
2022/10/22 04:31:51;;;;;;;0.80;0.75;;;;;;;10.93;65.51;99243.69;4349286;33;35836;-71
2022/10/22 04:34:20;;;;;;;1.17;1.17;;;;;;;10.94;64.97;99240.16;4349430;33;35296;-70
2022/10/22 04:36:48;;;;;;;6.70;3.95;;;;;;;10.67;65.85;99234.44;4349312;33;33725;-71
2022/10/22 04:39:16;;;;;;;3.75;1.80;;;;;;;9.97;68.45;99229.16;4347450;32;33966;-70
2022/10/22 04:41:44;;;;;;;3.03;1.75;;;;;;;9.89;69.22;99235.31;4349158;33;36006;-70
2022/10/22 04:44:12;;;;;;;0.95;0.95;;;;;;;10.84;66.48;99243.81;4349341;33;35258;-69
2022/10/22 04:46:44;;;;;;;1.50;1.40;;;;;;;11.01;64.56;99244.41;4335821;33;33089;-70
2022/10/22 04:49:12;;;;;;;6.68;2.90;;;;;;;9.75;69.68;99245.84;4349121;33;34036;-69
2022/10/22 04:51:40;;;;;;;5.90;2.53;;;;;;;10.75;65.82;99235.22;4335637;33;34225;-69
2022/10/22 04:54:08;;;;;;;1.00;1.00;;;;;;;10.90;64.87;99225.47;4348996;33;34542;-69
2022/10/22 04:56:36;;;;;;;0.70;0.70;;;;;;;10.59;66.04;99226.75;4349090;33;34056;-69
2022/10/22 04:59:06;;;;;;;2.50;2.30;;;;;;;10.30;66.97;99234.84;4348967;33;33912;-69
2022/10/22 05:01:37;;;;;;;0.60;0.60;;;;;;;10.54;66.26;99244.16;4348900;33;35205;-69
2022/10/22 05:04:15;;;;;;;1.27;0.98;;;;;;;10.55;66.08;99245.03;4336226;33;34398;-69
2022/10/22 05:06:43;;;;;;;9.43;2.50;;;;;;;10.60;65.60;99238.87;4335841;33;33421;-69
2022/10/22 05:09:17;;;;;;;1.60;1.25;;;;;;;10.37;66.49;99239.16;4335617;33;33525;-69
2022/10/22 05:11:47;;;;;;;1.10;1.10;;;;;;;10.48;65.49;99227.75;4335682;33;34246;-69
2022/10/22 05:14:17;;;;;;;5.50;3.30;;;;;;;10.29;66.06;99233.16;4348694;33;33565;-69
2022/10/22 05:16:46;;;;;;;0.73;0.73;;;;;;;10.01;67.42;99228.25;4335611;33;32091;-69
2022/10/22 05:19:19;;;;;;;0.80;0.80;;;;;;;9.80;68.83;99239.72;4348879;33;34585;-69
2022/10/22 05:21:48;;;;;;;0.60;0.60;;;;;;;9.06;71.67;99248.06;4335739;33;35173;-69
2022/10/22 05:24:16;;;;;;;0.77;0.77;;;;;;;9.85;69.58;99242.28;4348784;33;34484;-69
2022/10/22 05:26:43;;;;;;;0.88;0.88;;;;;;;9.79;68.85;99243.19;4335187;33;33619;-69
2022/10/22 05:29:12;;;;;;;0.95;0.95;;;;;;;9.92;69.28;99241.34;4347965;33;34025;-69
2022/10/22 05:31:40;;;;;;;1.02;1.02;;;;;;;10.29;67.83;99238.34;4348922;33;35118;-69
2022/10/22 05:34:08;;;;;;;0.88;0.88;;;;;;;10.49;66.81;99247.72;4348783;33;34451;-70
2022/10/22 05:36:36;;;;;;;0.40;0.40;;;;;;;9.86;68.97;99239.69;4348623;33;33420;-70
2022/10/22 05:39:05;;;;;;;2.60;1.20;;;;;;;10.57;66.64;99232.84;4348889;33;33903;-69
2022/10/22 05:41:34;;;;;;;0.40;0.40;;;;;;;10.63;65.62;99235.38;4348654;33;35159;-69
2022/10/22 05:44:03;;;;;;;2.95;1.50;;;;;;;9.66;70.36;99239.84;4348792;33;35114;-69
2022/10/22 05:46:34;;;;;;;0.57;0.57;;;;;;;10.51;67.05;99233.78;4335480;33;34301;-69
2022/10/22 05:49:04;;;;;;;3.33;3.03;;;;;;;10.00;68.99;99231.72;4348619;33;34801;-70
2022/10/22 05:51:34;;;;;;;0.88;0.88;;;;;;;9.60;71.58;99247.69;4335357;33;35014;-70
2022/10/22 05:54:04;;;;;;;0.85;0.85;;;;;;;10.64;68.19;99255.31;4335388;33;34434;-71
2022/10/22 05:56:33;;;;;;;1.20;1.10;;;;;;;9.75;72.31;99256.25;4335481;33;33565;-70
2022/10/22 05:59:01;;;;;;;0.60;0.60;;;;;;;10.23;70.63;99248.81;4348579;33;33790;-70
2022/10/22 06:01:35;;;;;;;0.95;0.95;;;;;;;10.79;68.11;99246.47;4335879;33;34870;-70
2022/10/22 06:04:05;;;;;;;2.08;1.37;;;;;;;10.27;69.28;99260.06;4348525;33;35305;-70
2022/10/22 06:06:34;;;;;;;1.20;1.10;;;;;;;10.05;71.29;99268.09;4335318;33;33455;-70
2022/10/22 06:09:13;;;;;;;0.80;0.80;;;;;;;10.04;72.29;99275.03;4348560;33;34840;-70
2022/10/22 06:11:42;;;;;;;0.70;0.70;;;;;;;10.62;70.67;99283.13;4348354;33;35086;-70
2022/10/22 06:14:10;;;;;;;0.40;0.40;;;;;;;11.17;68.46;99282.41;4348183;33;34415;-70
2022/10/22 06:16:38;;;;;;;0.82;0.82;;;;;;;10.92;69.33;99287.06;4348488;33;34487;-70
2022/10/22 06:19:07;;;;;;;0.93;0.93;;;;;;;10.84;69.87;99282.88;4335159;33;34007;-71
2022/10/22 06:21:34;;;;;;;0.62;0.62;;;;;;;11.37;68.38;99276.06;4346172;32;35740;-70
2022/10/22 06:24:03;;;;;;;0.70;0.70;;;;;;;11.22;67.55;99276.28;4348421;33;34742;-70
2022/10/22 06:26:31;;;;;;;1.12;1.02;;;;;;;11.55;68.00;99275.75;4348570;33;33594;-70
2022/10/22 06:28:59;;;;;;;1.83;1.73;;;;;;;11.06;70.54;99284.28;4348473;33;33868;-70
2022/10/22 06:31:27;;;;;;;1.05;1.05;;;;;;;11.33;70.27;99276.97;4335002;33;35021;-70
2022/10/22 06:33:56;;;;;;;1.45;1.35;;;;;;;11.10;71.16;99270.37;4348407;33;35292;-70
2022/10/22 06:36:24;;;;;;;0.60;0.60;;;;;;;11.42;70.79;99276.84;4348241;33;33592;-70
2022/10/22 06:38:53;;;;;;;0.40;0.40;;;;;;;11.66;70.53;99283.41;4347742;33;34681;-70
2022/10/22 06:41:23;;;;;;;0.82;0.68;;;;;;;11.71;70.62;99283.34;4348262;33;35177;-70
2022/10/22 06:43:56;;;;;;;0.68;0.52;;;;;;;12.02;70.43;99293.28;4335743;33;35293;-70
2022/10/22 06:46:25;;;;;;;0.62;0.60;;;;;;;12.28;70.01;99296.31;4348325;33;33540;-70
2022/10/22 06:48:59;;;;;;;3.05;2.72;;;;;;;12.52;67.78;99294.13;4348292;33;34003;-70
2022/10/22 06:51:28;;;;;;;1.50;1.40;;;;;;;13.28;65.26;99291.63;4348252;33;35923;-70
2022/10/22 06:53:57;;;;;;;1.83;1.33;;;;;;;13.30;61.77;99288.12;4335228;33;34485;-70
2022/10/22 06:56:28;;;;;;;0.60;0.60;;;;;;;13.74;60.87;99289.72;4348259;33;33577;-70
2022/10/22 06:58:57;;;;;;;0.88;0.88;;;;;;;14.16;59.83;99278.22;4348013;33;33934;-70
2022/10/22 07:01:28;;;;;;;0.57;0.57;;;;;;;13.97;61.53;99290.91;4347998;33;34917;-70
2022/10/22 07:03:56;;;;;;;0.82;0.82;;;;;;;13.89;60.96;99300.72;4334768;33;33844;-70
2022/10/22 07:06:26;;;;;;;3.25;1.92;;;;;;;14.52;59.11;99292.06;4348114;33;34558;-70
2022/10/22 07:08:54;;;;;;;1.12;0.98;;;;;;;14.55;57.74;99284.13;4348015;33;33905;-70
2022/10/22 07:11:26;;;;;;;1.05;1.05;;;;;;;14.43;59.44;99279.22;4347791;33;35840;-71
2022/10/22 07:13:56;;;;;;;2.05;1.55;;;;;;;14.35;58.85;99278.59;4348085;33;34568;-71
2022/10/22 07:16:24;;;;;;;1.25;1.15;;;;;;;14.62;57.34;99284.00;4334852;33;32535;-71
2022/10/22 07:19:02;;;;;;;0.90;0.88;;;;;;;14.87;56.39;99289.38;4348171;33;33964;-71
2022/10/22 07:21:31;;;;;;;5.35;1.50;;;;;;;14.90;52.86;99278.81;4345935;32;35154;-71
2022/10/22 07:23:59;;;;;;;3.37;1.12;;;;;;;14.69;53.59;99283.78;4347874;33;34520;-70
2022/10/22 07:26:29;;;;;;;1.62;1.52;;;;;;;14.57;53.15;99282.31;4347769;33;33369;-70
2022/10/22 07:28:59;;;;;;;2.92;2.05;;;;;;;15.04;51.31;99283.66;4347928;33;34096;-71
2022/10/22 07:31:27;;;;;;;1.65;1.52;;;;;;;14.65;52.27;99283.87;4334512;33;35026;-70
2022/10/22 07:33:55;;;;;;;0.75;0.73;;;;;;;15.16;50.63;99285.91;4347952;33;35313;-71
2022/10/22 07:36:24;;;;;;;1.27;1.17;;;;;;;15.04;50.80;99294.16;4334155;33;33690;-71
2022/10/22 07:38:56;;;;;;;1.42;1.33;;;;;;;15.16;51.09;99289.38;4334431;33;34030;-71
2022/10/22 07:41:26;;;;;;;2.22;1.90;;;;;;;15.10;51.34;99279.06;4334376;33;35832;-71
2022/10/22 07:43:55;;;;;;;2.10;1.90;;;;;;;15.47;51.87;99279.69;4347477;33;34493;-71
2022/10/22 07:46:24;;;;;;;2.20;2.00;;;;;;;15.96;48.37;99272.88;4334199;33;33454;-71
2022/10/22 07:48:52;;;;;;;1.87;1.77;;;;;;;15.96;48.33;99277.28;4347498;33;33937;-71
2022/10/22 07:51:21;;;;;;;0.70;0.70;;;;;;;16.35;47.69;99280.28;4348220;33;35491;-71
2022/10/22 07:53:49;;;;;;;1.35;1.27;;;;;;;16.46;47.90;99282.53;4349388;33;34526;-71
2022/10/22 07:56:17;;;;;;;0.70;0.70;;;;;;;16.48;47.25;99286.84;4336171;33;33243;-71
2022/10/22 07:58:45;;;;;;;2.78;1.20;;;;;;;16.79;46.61;99290.97;4349447;33;33724;-71
2022/10/22 08:01:13;;;;;;;2.33;1.77;;;;;;;17.34;45.90;99287.19;4349327;33;35189;-71
2022/10/22 08:03:41;;;;;;;2.45;2.25;;;;;;;17.56;45.81;99274.88;4336129;33;34440;-71
2022/10/22 08:06:12;;;;;;;1.58;1.25;;;;;;;17.68;46.17;99280.56;4349266;33;34154;-71
2022/10/22 08:08:41;;;;;;;0.93;0.93;;;;;;;18.46;44.40;99286.94;4336229;33;33122;-71
2022/10/22 08:11:09;;;;;;;2.25;1.12;;;;;;;18.33;44.66;99284.84;4349208;33;35048;-72
2022/10/22 08:13:38;;;;;;;1.87;1.67;;;;;;;18.98;44.66;99282.00;4335073;32;35234;-71
2022/10/22 08:16:12;;;;;;;1.42;1.33;;;;;;;19.51;41.64;99277.75;4363881;32;34207;-71
2022/10/22 08:18:41;;;;;;;2.33;2.12;;;;;;;19.64;41.27;99278.88;4338779;32;33913;-71
2022/10/22 08:21:10;;;;;;;2.22;2.03;;;;;;;20.31;41.07;99283.50;4364085;32;34986;-70
2022/10/22 08:23:38;;;;;;;0.80;0.80;;;;;;;20.93;38.63;99276.69;4364009;32;34012;-70
2022/10/22 08:26:06;;;;;;;0.82;0.82;;;;;;;21.04;41.64;99276.13;4364181;32;33402;-71
2022/10/22 08:28:36;;;;;;;0.93;0.93;;;;;;;21.40;40.65;99278.47;4363955;32;33987;-70
2022/10/22 08:31:06;;;;;;;3.53;2.50;;;;;;;21.67;38.78;99275.25;4364046;32;35809;-70
2022/10/22 08:33:35;;;;;;;3.30;1.73;;;;;;;21.78;38.33;99283.44;4363960;32;35799;-72
2022/10/22 08:36:03;;;;;;;2.75;2.10;;;;;;;20.96;40.62;99284.44;4350594;32;32660;-72
2022/10/22 08:38:31;;;;;;;0.95;0.80;;;;;;;20.80;40.11;99286.22;4364435;32;33834;-71
2022/10/22 08:41:06;;;;;;;2.55;1.92;;;;;;;19.85;42.32;99279.63;4364126;32;35057;-72
2022/10/22 08:43:53;;;;;;;1.83;1.50;;;;;;;19.51;44.50;99285.66;4350841;32;34580;-71
2022/10/22 08:46:40;;;;;;;;;;;;;;;19.24;44.78;99293.97;4364534;32;33637;-73
2022/10/22 08:49:17;;;;;;;1.37;1.27;;;;;;;19.57;42.08;99300.34;4364314;32;34260;-74
2022/10/22 08:51:45;;;;;;;1.75;1.35;;;;;;;19.65;41.83;99292.94;4364057;32;35116;-74
2022/10/22 08:54:37;;;;;;;0.93;0.93;;;;;;;18.68;43.16;99298.25;4350759;32;35350;-72
2022/10/22 08:57:12;;;;;;;1.80;1.70;;;;;;;18.44;44.32;99289.69;4350679;32;33419;-72
2022/10/22 08:59:46;;;;;;;1.48;1.37;;;;;;;18.80;43.77;99282.81;4336846;33;33891;-71
2022/10/22 09:02:52;;;;;;;1.60;1.50;;;;;;;18.09;46.83;99291.16;4333941;33;35127;-71
2022/10/22 09:05:27;;;;;;;7.90;4.20;;;;;;;18.02;47.37;99305.53;4332654;33;34475;-70
2022/10/22 09:07:56;;;;;;;1.80;1.42;;;;;;;18.39;46.26;99310.09;4348489;32;34360;-71
2022/10/22 09:10:28;;;;;;;2.92;1.75;;;;;;;17.96;46.04;99302.22;4348862;33;33916;-71
2022/10/22 09:12:56;;;;;;;2.00;1.85;;;;;;;18.13;45.71;99298.03;4335740;33;35093;-71
2022/10/22 09:15:25;;;;;;;2.67;2.47;;;;;;;18.19;48.24;99288.09;4348872;33;34482;-71
2022/10/22 09:18:02;;;;;;;2.60;2.40;;;;;;;17.76;47.70;99289.00;4348824;33;34008;-71
2022/10/22 09:20:44;;;;;;;2.75;2.50;;;;;;;18.29;47.21;99282.44;4348951;33;34090;-71
2022/10/22 09:23:37;;;;;;;4.22;3.12;;;;;;;18.24;46.35;99277.34;4335676;33;34697;-71
2022/10/22 09:26:14;;;;;;;1.25;1.17;;;;;;;18.65;46.34;99285.19;4348921;33;34574;-72
2022/10/22 09:28:42;;;;;;;1.85;1.75;;;;;;;18.69;45.85;99302.63;4335848;33;34351;-71
2022/10/22 09:31:13;;;;;;;1.98;1.77;;;;;;;18.24;47.29;99302.84;4348839;33;34051;-70
2022/10/22 09:33:44;;;;;;;1.55;1.45;;;;;;;18.31;46.44;99302.50;4335271;33;33516;-70
2022/10/22 09:36:16;;;;;;;1.95;1.50;;;;;;;18.28;47.17;99313.22;4323438;33;33842;-71
2022/10/22 09:38:47;;;;;;;4.93;2.22;;;;;;;18.42;46.17;99309.09;4335239;33;32218;-70
2022/10/22 09:41:16;;;;;;;3.30;3.00;;;;;;;18.75;46.54;99309.41;4335717;33;34006;-70
2022/10/22 09:43:48;;;;;;;2.03;1.33;;;;;;;18.87;45.86;99311.50;4335184;33;34904;-70
2022/10/22 09:46:19;;;;;;;1.60;1.42;;;;;;;18.16;47.35;99316.38;4335483;33;35289;-70
2022/10/22 09:48:57;;;;;;;2.47;2.00;;;;;;;18.08;47.28;99306.13;4348751;33;33340;-70
2022/10/22 09:51:52;;;;;;;2.35;2.15;;;;;;;18.02;50.29;99302.88;4348780;33;32817;-70
2022/10/22 09:54:22;;;;;;;2.15;1.95;;;;;;;18.77;45.84;99299.63;4348702;33;35006;-70
2022/10/22 09:57:03;;;;;;;2.28;2.08;;;;;;;18.23;48.30;99288.81;4348867;33;34114;-71
2022/10/22 09:59:37;;;;;;;2.60;1.95;;;;;;;18.43;48.16;99293.22;4335484;33;33521;-70
2022/10/22 10:02:12;;;;;;;3.17;2.25;;;;;;;18.18;49.53;99296.06;4348597;33;33913;-71
2022/10/22 10:04:55;;;;;;;1.40;1.30;;;;;;;18.62;47.01;99293.28;4348674;33;35782;-71
2022/10/22 10:07:31;;;;;;;3.08;1.60;;;;;;;18.10;49.49;99292.91;4348710;33;35259;-71
2022/10/22 10:10:00;;;;;;;1.30;0.98;;;;;;;18.51;48.50;99290.25;4348648;33;33434;-70
2022/10/22 10:12:40;;;;;;;3.90;2.72;;;;;;;18.29;49.11;99283.28;4348671;33;33454;-70
2022/10/22 10:15:32;;;;;;;1.35;1.25;;;;;;;18.40;47.83;99284.59;4347617;33;35005;-71
2022/10/22 10:18:42;;;;;;;5.68;2.92;;;;;;;19.22;45.43;99281.78;4335499;33;34360;-70
2022/10/22 10:21:22;;;;;;;2.35;2.03;;;;;;;18.69;47.38;99286.81;4347407;32;33530;-70
2022/10/22 10:23:59;;;;;;;2.40;2.25;;;;;;;18.63;47.61;99294.13;4348467;33;34589;-70
2022/10/22 10:26:31;;;;;;;2.58;2.10;;;;;;;18.46;49.41;99292.22;4335185;33;35932;-71
2022/10/22 10:29:11;;;;;;;2.08;1.75;;;;;;;19.06;48.16;99279.00;4348506;33;34379;-70
2022/10/22 10:32:03;;;;;;;1.12;1.02;;;;;;;18.66;47.79;99286.94;4347328;32;33560;-69
2022/10/22 10:34:43;;;;;;;2.03;1.75;;;;;;;18.86;48.20;99286.03;4348690;33;34746;-69
2022/10/22 10:37:23;;;;;;;2.22;2.03;;;;;;;19.03;47.75;99287.06;4348352;33;35035;-69
2022/10/22 10:40:30;;;;;;;2.40;2.20;;;;;;;18.66;47.13;99286.94;4348448;33;34438;-69
2022/10/22 10:42:59;;;;;;;2.40;1.77;;;;;;;18.29;49.75;99279.78;4335365;33;34416;-69
2022/10/22 10:45:34;;;;;;;2.12;1.92;;;;;;;18.53;49.50;99294.53;4348433;33;33947;-69
2022/10/22 10:48:11;;;;;;;2.65;2.37;;;;;;;19.47;46.90;99306.09;4335215;33;35491;-69
2022/10/22 10:50:53;;;;;;;2.67;1.12;;;;;;;18.80;47.03;99301.28;4335082;33;34908;-69
2022/10/22 10:53:39;;;;;;;2.15;1.83;;;;;;;18.31;49.83;99306.94;4348415;33;34300;-70
2022/10/22 10:56:39;;;;;;;2.50;1.80;;;;;;;18.59;49.55;99308.37;4347993;33;33998;-69
2022/10/22 10:59:29;;;;;;;2.35;1.85;;;;;;;18.55;49.84;99308.50;4347995;33;35113;-70
2022/10/22 11:02:16;;;;;;;1.52;1.42;;;;;;;18.53;48.51;99306.84;4348167;33;34578;-70
2022/10/22 11:05:11;;;;;;;4.93;2.75;;;;;;;18.62;48.37;99309.09;4347995;33;34351;-69
2022/10/22 11:08:02;;;;;;;1.77;1.65;;;;;;;18.05;50.40;99303.62;4348103;33;33920;-70
2022/10/22 11:10:46;;;;;;;4.15;2.40;;;;;;;18.30;49.56;99299.94;4348103;33;34741;-69
2022/10/22 11:13:31;;;;;;;2.03;1.85;;;;;;;17.91;51.21;99300.72;4334664;33;34367;-70
2022/10/22 11:16:18;;;;;;;0.75;0.75;;;;;;;18.32;51.04;99296.34;4334617;33;33555;-69
2022/10/22 11:18:52;;;;;;;;;;;;;;;18.29;51.12;99291.19;4346779;33;33591;-70
2022/10/22 11:21:27;;;;;;;1.70;1.60;;;;;;;18.75;49.93;99289.12;4348002;33;35231;-70
2022/10/22 11:24:22;;;;;;;4.05;2.58;;;;;;;19.26;48.10;99278.91;4334680;33;35408;-69
2022/10/22 11:26:56;;;;;;;6.53;2.67;;;;;;;19.32;47.82;99280.41;4336431;33;33625;-70
2022/10/22 11:29:28;;;;;;;2.70;1.70;;;;;;;18.94;49.49;99280.44;4349682;33;34254;-70
2022/10/22 11:32:01;;;;;;;5.62;3.70;;;;;;;19.26;48.70;99278.06;4336933;33;35903;-69
2022/10/22 11:34:33;;;;;;;6.65;3.83;;;;;;;19.20;48.51;99271.31;4349555;33;35111;-69
2022/10/22 11:37:03;;;;;;;12.48;2.95;;;;;;;18.81;50.04;99269.53;4336417;33;33503;-69
2022/10/22 11:39:54;;;;;;;0.88;0.88;;;;;;;18.95;49.55;99271.56;4349509;33;34633;-69
2022/10/22 11:42:33;;;;;;;1.50;1.40;;;;;;;19.20;50.02;99266.03;4336425;33;35879;-70
2022/10/22 11:45:12;;;;;;;2.72;2.50;;;;;;;19.24;49.40;99267.59;4336578;33;34512;-69
2022/10/22 11:47:52;;;;;;;1.92;1.45;;;;;;;19.75;49.60;99259.88;4349453;33;33461;-69
2022/10/22 11:50:26;;;;;;;3.22;2.37;;;;;;;19.61;51.02;99254.41;4349629;33;33804;-69
2022/10/22 11:53:01;;;;;;;2.28;2.12;;;;;;;19.93;49.49;99266.03;4336934;33;34929;-70
2022/10/22 11:55:44;;;;;;;2.50;2.28;;;;;;;20.11;49.72;99258.94;4349511;33;34299;-69
2022/10/22 11:58:27;;;;;;;2.58;2.35;;;;;;;20.02;49.41;99254.13;4336857;33;34351;-70
2022/10/22 12:01:09;;;;;;;2.42;2.22;;;;;;;20.23;48.11;99255.66;4349376;33;33709;-70